sensor_id;sensor_type;location;lat;lon;timestamp;pressure;altitude;pressure_sealevel;temperature;humidity
30338;BME280;17143;51.888;5.408;2023-03-21T00:07:39;101480.34;;;10.50;100.00
30338;BME280;17143;51.888;5.408;2023-03-21T00:22:42;101466.22;;;10.46;100.00
30338;BME280;17143;51.888;5.408;2023-03-21T00:37:44;101455.63;;;10.43;100.00
30338;BME280;17143;51.888;5.408;2023-03-21T00:52:46;101443.28;;;10.40;100.00
30338;BME280;17143;51.888;5.408;2023-03-21T01:07:48;101418.84;;;10.38;100.00
30338;BME280;17143;51.888;5.408;2023-03-21T01:22:50;101411.03;;;10.38;100.00
30338;BME280;17143;51.888;5.408;2023-03-21T01:37:53;101405.94;;;10.40;100.00
30338;BME280;17143;51.888;5.408;2023-03-21T01:52:55;101381.66;;;10.41;100.00
30338;BME280;17143;51.888;5.408;2023-03-21T02:08:06;101364.34;;;10.42;100.00
30338;BME280;17143;51.888;5.408;2023-03-21T02:23:23;101358.16;;;10.39;100.00
30338;BME280;17143;51.888;5.408;2023-03-21T02:38:37;101333.72;;;10.37;100.00
30338;BME280;17143;51.888;5.408;2023-03-21T02:53:44;101328.53;;;10.37;100.00
30338;BME280;17143;51.888;5.408;2023-03-21T03:09:04;101318.88;;;10.36;100.00
30338;BME280;17143;51.888;5.408;2023-03-21T03:24:14;101320.19;;;10.30;100.00
30338;BME280;17143;51.888;5.408;2023-03-21T03:39:22;101299.91;;;10.24;100.00
30338;BME280;17143;51.888;5.408;2023-03-21T03:54:36;101306.91;;;10.25;100.00
30338;BME280;17143;51.888;5.408;2023-03-21T04:09:40;101295.38;;;10.22;100.00
30338;BME280;17143;51.888;5.408;2023-03-21T04:24:42;101283.28;;;10.22;100.00
30338;BME280;17143;51.888;5.408;2023-03-21T04:39:44;101269.53;;;10.25;100.00
30338;BME280;17143;51.888;5.408;2023-03-21T04:54:46;101255.47;;;10.21;100.00
30338;BME280;17143;51.888;5.408;2023-03-21T05:09:49;101250.84;;;10.17;100.00
30338;BME280;17143;51.888;5.408;2023-03-21T05:24:52;101246.28;;;10.13;100.00
30338;BME280;17143;51.888;5.408;2023-03-21T05:40:07;101236.66;;;10.12;100.00
30338;BME280;17143;51.888;5.408;2023-03-21T05:55:11;101242.97;;;10.16;100.00
30338;BME280;17143;51.888;5.408;2023-03-21T06:10:13;101226.44;;;10.15;100.00
30338;BME280;17143;51.888;5.408;2023-03-21T06:25:20;101229.50;;;10.23;100.00
30338;BME280;17143;51.888;5.408;2023-03-21T06:40:22;101242.97;;;10.30;100.00
30338;BME280;17143;51.888;5.408;2023-03-21T06:55:26;101236.53;;;10.38;100.00
30338;BME280;17143;51.888;5.408;2023-03-21T07:10:29;101242.13;;;10.45;100.00
30338;BME280;17143;51.888;5.408;2023-03-21T07:25:38;101259.00;;;10.51;100.00
30338;BME280;17143;51.888;5.408;2023-03-21T07:40:41;101258.88;;;10.63;100.00
30338;BME280;17143;51.888;5.408;2023-03-21T07:55:43;101229.16;;;10.74;100.00
30338;BME280;17143;51.888;5.408;2023-03-21T08:10:45;101219.88;;;10.79;100.00
30338;BME280;17143;51.888;5.408;2023-03-21T08:25:50;101213.78;;;10.78;100.00
30338;BME280;17143;51.888;5.408;2023-03-21T08:40:52;101197.75;;;11.01;100.00
30338;BME280;17143;51.888;5.408;2023-03-21T08:55:54;101188.19;;;11.31;100.00
30338;BME280;17143;51.888;5.408;2023-03-21T09:10:56;101178.78;;;11.49;100.00
30338;BME280;17143;51.888;5.408;2023-03-21T09:25:58;101160.53;;;11.66;100.00
30338;BME280;17143;51.888;5.408;2023-03-21T09:41:09;101153.09;;;11.88;100.00
30338;BME280;17143;51.888;5.408;2023-03-21T09:56:12;101132.53;;;11.94;100.00
30338;BME280;17143;51.888;5.408;2023-03-21T10:11:17;101128.91;;;12.24;100.00
30338;BME280;17143;51.888;5.408;2023-03-21T10:26:22;101118.59;;;12.43;100.00
30338;BME280;17143;51.888;5.408;2023-03-21T10:41:25;101104.34;;;12.90;100.00
30338;BME280;17143;51.888;5.408;2023-03-21T10:56:29;101126.91;;;13.05;100.00
30338;BME280;17143;51.888;5.408;2023-03-21T11:11:36;101110.97;;;13.17;100.00
30338;BME280;17143;51.888;5.408;2023-03-21T11:26:39;101095.84;;;13.66;100.00
30338;BME280;17143;51.888;5.408;2023-03-21T11:41:47;101086.47;;;13.71;100.00
30338;BME280;17143;51.888;5.408;2023-03-21T11:56:52;101081.13;;;13.69;100.00
30338;BME280;17143;51.888;5.408;2023-03-21T12:12:02;101073.09;;;13.84;100.00
30338;BME280;17143;51.888;5.408;2023-03-21T12:27:15;101047.84;;;14.26;100.00
30338;BME280;17143;51.888;5.408;2023-03-21T12:42:40;101034.19;;;14.74;100.00
30338;BME280;17143;51.888;5.408;2023-03-21T12:57:57;101018.09;;;14.87;100.00
30338;BME280;17143;51.888;5.408;2023-03-21T13:13:09;101003.59;;;16.14;92.39
30338;BME280;17143;51.888;5.408;2023-03-21T13:28:19;100990.19;;;16.06;88.99
30338;BME280;17143;51.888;5.408;2023-03-21T13:43:41;100981.63;;;15.63;84.72
30338;BME280;17143;51.888;5.408;2023-03-21T13:58:52;100976.84;;;15.51;86.40
30338;BME280;17143;51.888;5.408;2023-03-21T14:13:54;100955.47;;;15.66;86.45
30338;BME280;17143;51.888;5.408;2023-03-21T14:28:57;100943.72;;;15.80;86.03
30338;BME280;17143;51.888;5.408;2023-03-21T14:44:20;100930.59;;;15.80;86.93
30338;BME280;17143;51.888;5.408;2023-03-21T14:59:25;100929.22;;;15.66;86.98
30338;BME280;17143;51.888;5.408;2023-03-21T15:14:31;100948.41;;;15.17;88.66
30338;BME280;17143;51.888;5.408;2023-03-21T15:29:34;100908.88;;;15.13;90.02
30338;BME280;17143;51.888;5.408;2023-03-21T15:44:36;100904.78;;;15.19;91.25
30338;BME280;17143;51.888;5.408;2023-03-21T15:59:40;100926.50;;;14.93;92.49
30338;BME280;17143;51.888;5.408;2023-03-21T16:14:43;100942.63;;;14.58;94.61
30338;BME280;17143;51.888;5.408;2023-03-21T16:29:45;100950.31;;;14.33;98.19
30338;BME280;17143;51.888;5.408;2023-03-21T16:44:47;100965.00;;;14.09;100.00
30338;BME280;17143;51.888;5.408;2023-03-21T16:59:49;100948.97;;;13.80;100.00
30338;BME280;17143;51.888;5.408;2023-03-21T17:14:51;100940.47;;;13.86;100.00
30338;BME280;17143;51.888;5.408;2023-03-21T17:29:53;100942.00;;;13.60;100.00
30338;BME280;17143;51.888;5.408;2023-03-21T17:44:55;100935.53;;;13.14;100.00
30338;BME280;17143;51.888;5.408;2023-03-21T17:59:57;100928.78;;;13.00;100.00
30338;BME280;17143;51.888;5.408;2023-03-21T18:14:59;100933.88;;;12.97;100.00
30338;BME280;17143;51.888;5.408;2023-03-21T18:30:01;100926.69;;;12.93;100.00
30338;BME280;17143;51.888;5.408;2023-03-21T18:45:05;100921.06;;;12.83;100.00
30338;BME280;17143;51.888;5.408;2023-03-21T19:00:10;100917.44;;;12.81;100.00
30338;BME280;17143;51.888;5.408;2023-03-21T19:15:12;100917.44;;;12.81;100.00
30338;BME280;17143;51.888;5.408;2023-03-21T19:30:14;100917.22;;;12.58;100.00
30338;BME280;17143;51.888;5.408;2023-03-21T19:45:16;100921.00;;;12.28;100.00
30338;BME280;17143;51.888;5.408;2023-03-21T20:00:19;100915.84;;;12.29;100.00
30338;BME280;17143;51.888;5.408;2023-03-21T20:15:22;100904.88;;;12.36;100.00
30338;BME280;17143;51.888;5.408;2023-03-21T20:30:24;100900.25;;;12.31;100.00
30338;BME280;17143;51.888;5.408;2023-03-21T20:45:26;100898.09;;;12.22;100.00
30338;BME280;17143;51.888;5.408;2023-03-21T21:00:28;100879.19;;;12.10;100.00
30338;BME280;17143;51.888;5.408;2023-03-21T21:15:30;100874.59;;;11.87;100.00
30338;BME280;17143;51.888;5.408;2023-03-21T21:30:32;100858.03;;;11.69;100.00
30338;BME280;17143;51.888;5.408;2023-03-21T21:45:36;100854.63;;;11.53;100.00
30338;BME280;17143;51.888;5.408;2023-03-21T22:00:38;100844.28;;;11.39;100.00
30338;BME280;17143;51.888;5.408;2023-03-21T22:15:40;100831.72;;;11.30;100.00
30338;BME280;17143;51.888;5.408;2023-03-21T22:30:42;100826.81;;;11.20;100.00
30338;BME280;17143;51.888;5.408;2023-03-21T22:45:44;100820.78;;;11.04;100.00
30338;BME280;17143;51.888;5.408;2023-03-21T23:00:46;100829.34;;;10.85;100.00
30338;BME280;17143;51.888;5.408;2023-03-21T23:15:49;100811.09;;;10.69;100.00
30338;BME280;17143;51.888;5.408;2023-03-21T23:30:51;100800.19;;;10.60;100.00
30338;BME280;17143;51.888;5.408;2023-03-21T23:45:53;100805.72;;;10.50;100.00
